Aérodrome :
LOGIN :

S'inscrire | Disclaimer

   EN    FR    IT 

 










Légende :    VFR   VFR Marginal   IFR   IFR Intensif   IFR Très Intensif
Visi : 
Plafond : 
>= 8 km
>= 3000ft
5 à 8 km
1000 à 3000 ft
1500m à 5 km
500 à 1000 ft
800 à 1500m
200 à 500 ft
< 800m
< 200 ft
Symboles :   Orages  Brouillard  Fortes neiges  Fortes précipitations  Vent > 20 kt
SIGMETs :   Divers  Orages  Givrage  Turbulence  Onde Orograph.  Cendres Volcan.






- Altitude de l'aérodrome : 2945 ft
- Code IATA : RGS


LEBG - Burgos

DERNIER METAR :
  • 280800Z AUTO 03008KT CAVOK 17/12 Q1026

METARs EXPIRÉS :
  • 280730Z AUTO 03008KT CAVOK 15/11 Q1026
  • 280700Z AUTO 02007KT CAVOK 14/11 Q1026
  • 280630Z AUTO 03004KT 350V060 CAVOK 13/11 Q1026
  • 280600Z AUTO 03006KT CAVOK 12/11 Q1026
  • 280530Z AUTO 02005KT CAVOK 11/10 Q1026

TAF TAF LEBG
Valide du 28 à 09h jusqu'au 28 à 18h UTC


280800Z 2809/2818 06006KT CAVOK
PROB30
TEMPO 2814/2818 FEW035TCU



MET'MAP, la Météo Aéronautique d'un coup d'oeil ! - Copyright ORBIFLY Décembre 2007 - Disclaimer

ORBIFLY MET'MAP TEAM :

Programmation & Développement : Alexandra Zaïnal
Sur une idée originale de : Baudouin d'Aumeries
Assistance à la programmation : Marc-Olivier Méhu
Soutien technique & logistique : Manuel Goepfert

Contact : metmap@orbifly.com




SOURCES & CREDITS :

   NOAA